Time;durP1;ratioP1;P1;durP2;ratioP2;P2;SDS_P1;SDS_P2;PMS_P1;PMS_P2;Temp;Humidity;BMP_temperature;BMP_pressure;BME280_temperature;BME280_humidity;BME280_pressure;Samples;Min_cycle;Max_cycle;Signal;HPM_P1;HPM_P2
2021/05/13 00:00:30;;;;;;;5.75;2.10;;;11.10;99.90;;;;;;4951514;28;20041;-86
2021/05/13 00:02:56;;;;;;;4.80;1.90;;;11.10;99.90;;;;;;4960986;28;20027;-86
2021/05/13 00:05:22;;;;;;;4.20;1.90;;;11.10;99.90;;;;;;4977036;28;20027;-86
2021/05/13 00:07:48;;;;;;;4.82;1.90;;;11.10;99.90;;;;;;4977146;28;20023;-85
2021/05/13 00:10:17;;;;;;;3.78;1.75;;;11.10;99.90;;;;;;4974568;28;20034;-85
2021/05/13 00:15:17;;;;;;;4.68;1.80;;;11.10;99.90;;;;;;4978599;28;20031;-87
2021/05/13 00:17:44;;;;;;;4.22;1.60;;;11.00;99.90;;;;;;4957782;28;20166;-85
2021/05/13 00:20:14;;;;;;;4.75;2.40;;;10.90;99.90;;;;;;4960168;28;20030;-86
2021/05/13 00:22:40;;;;;;;4.75;2.28;;;10.90;99.90;;;;;;4944894;28;20019;-87
2021/05/13 00:25:07;;;;;;;4.65;2.50;;;10.90;99.90;;;;;;4976942;28;20033;-86
2021/05/13 00:27:33;;;;;;;4.65;2.10;;;10.80;99.90;;;;;;4977126;28;20038;-86
2021/05/13 00:29:59;;;;;;;4.68;2.38;;;10.80;99.90;;;;;;4972806;28;20051;-86
2021/05/13 00:32:24;;;;;;;5.38;2.45;;;10.80;99.90;;;;;;4953060;28;20054;-86
2021/05/13 00:34:50;;;;;;;6.22;2.03;;;10.70;99.90;;;;;;4987733;28;20050;-86
2021/05/13 00:37:16;;;;;;;4.22;2.28;;;10.70;99.90;;;;;;4959741;28;20027;-87
2021/05/13 00:39:41;;;;;;;5.75;2.05;;;10.80;99.90;;;;;;4960809;28;20118;-87
2021/05/13 00:42:07;;;;;;;3.97;1.85;;;10.70;99.90;;;;;;4948091;29;20027;-85
2021/05/13 00:44:35;;;;;;;3.78;2.05;;;10.70;99.90;;;;;;4959958;28;20027;-85
2021/05/13 00:47:02;;;;;;;4.85;2.13;;;10.60;99.90;;;;;;4960326;28;20041;-86
2021/05/13 00:49:27;;;;;;;9.20;2.47;;;10.60;99.90;;;;;;4961063;28;20034;-85
2021/05/13 00:51:53;;;;;;;6.10;2.08;;;10.60;99.90;;;;;;4957471;29;20089;-85
2021/05/13 00:54:19;;;;;;;4.55;2.03;;;10.60;99.90;;;;;;4958934;29;20055;-85
2021/05/13 00:56:45;;;;;;;4.90;2.00;;;10.60;99.90;;;;;;4957838;29;20038;-85
2021/05/13 00:59:12;;;;;;;5.90;2.13;;;10.70;99.90;;;;;;4957462;28;20113;-86
2021/05/13 01:04:05;;;;;;;4.13;1.65;;;10.70;99.90;;;;;;4978098;28;20030;-86
2021/05/13 01:06:31;;;;;;;5.53;2.15;;;10.70;99.90;;;;;;4976732;28;20081;-86
2021/05/13 01:08:57;;;;;;;4.10;1.58;;;10.60;99.90;;;;;;4978554;28;20022;-85
2021/05/13 01:11:22;;;;;;;4.97;1.77;;;10.70;99.90;;;;;;4963233;28;20033;-87
2021/05/13 01:14:03;;;;;;;4.10;2.00;;;10.60;99.90;;;;;;4965492;28;20031;-85
2021/05/13 01:16:44;;;;;;;5.60;2.20;;;10.70;99.90;;;;;;4945254;28;20031;-86
2021/05/13 01:19:10;;;;;;;6.15;2.50;;;10.70;99.90;;;;;;4945456;29;20035;-85
2021/05/13 01:21:39;;;;;;;6.20;2.60;;;10.60;99.90;;;;;;4954181;28;20027;-85
2021/05/13 01:24:06;;;;;;;4.97;2.53;;;10.70;99.90;;;;;;4964672;28;20030;-84
2021/05/13 01:26:32;;;;;;;6.13;2.72;;;10.70;99.90;;;;;;4959763;28;20154;-84
2021/05/13 01:28:59;;;;;;;7.28;2.95;;;10.60;99.90;;;;;;4943868;29;20031;-85
2021/05/13 01:31:24;;;;;;;4.20;2.40;;;10.60;99.90;;;;;;4959978;29;20388;-85
2021/05/13 01:33:50;;;;;;;4.68;2.50;;;10.70;99.90;;;;;;4947789;28;20035;-86
2021/05/13 01:36:16;;;;;;;4.85;2.65;;;10.60;99.90;;;;;;4945217;29;20552;-86
2021/05/13 01:38:42;;;;;;;4.32;2.42;;;10.60;99.90;;;;;;4960659;28;20033;-87
2021/05/13 01:41:08;;;;;;;5.78;3.05;;;10.60;99.90;;;;;;4960345;29;20043;-85
2021/05/13 01:43:33;;;;;;;5.20;2.67;;;10.60;99.90;;;;;;4971194;28;20034;-85
2021/05/13 01:46:00;;;;;;;4.30;2.58;;;10.80;99.90;;;;;;4981306;28;20026;-86
2021/05/13 01:48:27;;;;;;;9.55;2.85;;;10.60;99.90;;;;;;4979841;28;20468;-85
2021/05/13 01:50:53;;;;;;;4.95;2.47;;;10.60;99.90;;;;;;4979752;28;20507;-88
2021/05/13 01:53:20;;;;;;;4.88;2.78;;;10.60;99.90;;;;;;4963070;28;20027;-86
2021/05/13 01:55:46;;;;;;;6.32;2.70;;;10.50;99.90;;;;;;4963303;28;20026;-87
2021/05/13 01:58:13;;;;;;;5.50;2.65;;;10.40;99.90;;;;;;4980770;28;20026;-85
2021/05/13 02:00:40;;;;;;;5.35;2.33;;;10.30;99.90;;;;;;4959895;29;20027;-85
2021/05/13 02:03:06;;;;;;;8.07;2.97;;;10.30;99.90;;;;;;4960479;28;20023;-85
2021/05/13 02:05:32;;;;;;;7.50;2.30;;;10.30;99.90;;;;;;4944365;29;20499;-85
2021/05/13 02:07:58;;;;;;;5.68;2.63;;;10.30;99.90;;;;;;4943946;28;20031;-86
2021/05/13 02:10:24;;;;;;;4.32;2.00;;;10.20;99.90;;;;;;4976960;23;20071;-87
2021/05/13 02:12:50;;;;;;;4.72;2.33;;;10.30;99.90;;;;;;4985616;28;20031;-87
2021/05/13 02:15:17;;;;;;;5.60;2.50;;;10.20;99.90;;;;;;4976277;28;20023;-87
2021/05/13 02:17:43;;;;;;;5.40;2.63;;;10.10;99.90;;;;;;4976331;28;20082;-87
2021/05/13 02:20:11;;;;;;;6.25;2.80;;;10.10;99.90;;;;;;4973970;28;20031;-87
2021/05/13 02:22:37;;;;;;;4.97;2.78;;;10.10;99.90;;;;;;4958738;28;20023;-87
2021/05/13 02:25:04;;;;;;;9.25;3.05;;;10.10;99.90;;;;;;4971742;28;20023;-87
2021/05/13 02:27:30;;;;;;;4.72;2.47;;;10.00;99.90;;;;;;4993076;28;20384;-86
2021/05/13 02:29:56;;;;;;;5.32;3.13;;;9.90;99.90;;;;;;4993022;28;20107;-86
2021/05/13 02:32:21;;;;;;;4.60;2.75;;;9.90;99.90;;;;;;4994402;28;20089;-87
2021/05/13 02:34:47;;;;;;;7.03;2.78;;;9.80;99.90;;;;;;4992934;28;20180;-86
2021/05/13 02:37:13;;;;;;;5.68;3.03;;;9.70;99.90;;;;;;4994738;28;20434;-86
2021/05/13 02:39:38;;;;;;;6.55;3.40;;;9.70;99.90;;;;;;4992797;28;20074;-87
2021/05/13 02:42:04;;;;;;;7.53;3.50;;;9.70;99.90;;;;;;4994000;28;20548;-87
2021/05/13 02:44:30;;;;;;;6.93;3.03;;;9.80;99.90;;;;;;4977411;28;20026;-87
2021/05/13 02:46:56;;;;;;;5.43;3.28;;;9.80;99.90;;;;;;4977699;28;20027;-87
2021/05/13 02:49:22;;;;;;;7.00;3.28;;;9.80;99.90;;;;;;4976990;28;20034;-86
2021/05/13 02:51:47;;;;;;;5.88;3.17;;;9.80;99.90;;;;;;4994318;28;20036;-87
2021/05/13 02:54:13;;;;;;;6.63;2.90;;;9.80;99.90;;;;;;4993809;28;20026;-86
2021/05/13 02:56:38;;;;;;;7.78;3.30;;;9.80;99.90;;;;;;4989790;28;20031;-86
2021/05/13 02:59:04;;;;;;;6.82;2.70;;;9.80;99.90;;;;;;4976136;28;20031;-87
2021/05/13 03:01:30;;;;;;;5.20;2.90;;;9.80;99.90;;;;;;4958716;28;20026;-87
2021/05/13 03:03:58;;;;;;;4.75;2.60;;;9.80;99.90;;;;;;4990293;28;20097;-87
2021/05/13 03:06:25;;;;;;;5.70;2.50;;;9.90;99.90;;;;;;4966710;28;20026;-87
2021/05/13 03:08:58;;;;;;;4.70;2.38;;;9.80;99.90;;;;;;4994175;28;20033;-87
2021/05/13 03:11:26;;;;;;;5.75;2.83;;;9.90;99.90;;;;;;4993304;28;20037;-87
2021/05/13 03:13:54;;;;;;;4.95;2.50;;;9.90;99.90;;;;;;4993137;28;20033;-86
2021/05/13 03:16:20;;;;;;;5.78;2.63;;;10.00;99.90;;;;;;4977626;28;20026;-86
2021/05/13 03:18:50;;;;;;;5.60;2.47;;;10.00;99.90;;;;;;4977650;28;20027;-87
2021/05/13 03:21:28;;;;;;;7.25;2.80;;;10.00;99.90;;;;;;4977754;28;20041;-87
2021/05/13 03:24:45;;;;;;;4.70;2.17;;;10.10;99.90;;;;;;4976559;28;20510;-87
2021/05/13 03:29:12;;;;;;;5.80;2.22;;;10.10;99.90;;;;;;4995129;28;20511;-86
2021/05/13 03:31:38;;;;;;;3.53;1.83;;;10.10;99.90;;;;;;4992767;28;20061;-85
2021/05/13 03:34:04;;;;;;;4.10;2.08;;;10.10;99.90;;;;;;4993083;28;20030;-87
2021/05/13 03:36:32;;;;;;;5.72;2.17;;;10.20;99.90;;;;;;4977260;28;20026;-87
2021/05/13 03:39:03;;;;;;;4.45;2.55;;;10.20;99.90;;;;;;4990554;28;20038;-87
2021/05/13 03:41:30;;;;;;;6.40;2.17;;;10.10;99.90;;;;;;4994206;28;20045;-87
2021/05/13 03:43:56;;;;;;;5.05;2.47;;;10.10;99.90;;;;;;4976450;28;20117;-87
2021/05/13 03:46:21;;;;;;;5.35;2.53;;;10.10;99.90;;;;;;4992287;28;20072;-87
2021/05/13 03:48:47;;;;;;;3.97;2.38;;;10.10;99.90;;;;;;4987253;28;20042;-87
2021/05/13 03:51:13;;;;;;;6.20;2.30;;;10.00;99.90;;;;;;4993361;28;20031;-87
2021/05/13 03:53:39;;;;;;;4.20;2.35;;;10.00;99.90;;;;;;4992791;28;20120;-86
2021/05/13 03:56:05;;;;;;;5.15;2.47;;;10.00;99.90;;;;;;4993263;28;20026;-86
2021/05/13 03:58:35;;;;;;;4.43;2.33;;;10.00;99.90;;;;;;4976494;28;20090;-87
2021/05/13 04:01:14;;;;;;;5.28;2.08;;;10.00;99.90;;;;;;4975925;28;20027;-87
2021/05/13 04:03:40;;;;;;;5.53;2.47;;;9.90;99.90;;;;;;4994175;28;20018;-87
2021/05/13 04:06:05;;;;;;;5.13;2.58;;;9.90;99.90;;;;;;4975994;28;20029;-86
2021/05/13 04:08:31;;;;;;;4.15;2.67;;;9.90;99.90;;;;;;4992303;28;20384;-87
2021/05/13 04:10:57;;;;;;;6.05;2.30;;;9.90;99.90;;;;;;4991197;28;20042;-86
2021/05/13 04:13:23;;;;;;;5.88;1.98;;;9.90;99.90;;;;;;4989670;28;20030;-85
2021/05/13 04:15:48;;;;;;;3.83;2.15;;;10.00;99.90;;;;;;4974353;28;20026;-87
2021/05/13 04:18:15;;;;;;;4.35;2.00;;;10.00;99.90;;;;;;4990542;28;20495;-87
2021/05/13 04:20:41;;;;;;;4.22;2.40;;;10.00;99.90;;;;;;4991633;28;20106;-87
2021/05/13 04:23:10;;;;;;;4.10;2.53;;;9.90;99.90;;;;;;4980512;28;20070;-86
2021/05/13 04:25:36;;;;;;;4.65;2.38;;;10.00;99.90;;;;;;4990547;28;20053;-86
2021/05/13 04:28:02;;;;;;;4.00;2.15;;;10.00;99.90;;;;;;4974261;28;20033;-87
2021/05/13 04:30:28;;;;;;;6.03;2.30;;;9.90;99.90;;;;;;4992869;28;20031;-87
2021/05/13 04:32:54;;;;;;;4.35;2.40;;;9.90;99.90;;;;;;4990633;28;20443;-87
2021/05/13 04:35:19;;;;;;;5.53;2.20;;;9.90;99.90;;;;;;4990196;28;20049;-86
2021/05/13 04:37:45;;;;;;;3.85;2.13;;;10.00;99.90;;;;;;4990173;28;20503;-87
2021/05/13 04:40:11;;;;;;;5.05;2.53;;;10.00;99.90;;;;;;4973984;28;20163;-87
2021/05/13 04:42:37;;;;;;;5.22;2.55;;;10.10;99.90;;;;;;4991538;28;20027;-87
2021/05/13 04:45:03;;;;;;;4.78;2.50;;;10.10;99.90;;;;;;4995454;28;20033;-87
2021/05/13 04:47:51;;;;;;;5.57;2.60;;;10.10;99.90;;;;;;4995264;28;20022;-87
2021/05/13 04:50:17;;;;;;;4.13;2.25;;;10.20;99.90;;;;;;4995312;28;20023;-87
2021/05/13 04:52:43;;;;;;;5.60;3.03;;;10.30;99.90;;;;;;4995376;28;20061;-87
2021/05/13 04:55:09;;;;;;;4.65;2.30;;;10.20;99.90;;;;;;5013616;28;20513;-87
2021/05/13 04:57:36;;;;;;;4.80;2.75;;;10.30;99.90;;;;;;4991425;28;20079;-87
2021/05/13 05:00:05;;;;;;;4.68;2.47;;;10.40;99.90;;;;;;4975800;28;20023;-86
2021/05/13 05:02:31;;;;;;;6.20;2.72;;;10.40;99.90;;;;;;4990945;28;20114;-87
2021/05/13 05:04:57;;;;;;;5.57;3.20;;;10.40;99.90;;;;;;4992126;28;20539;-88
2021/05/13 05:07:22;;;;;;;4.65;2.55;;;10.50;99.90;;;;;;4958667;28;20547;-87
2021/05/13 05:09:48;;;;;;;4.30;2.60;;;10.50;99.90;;;;;;4976852;28;20034;-88
2021/05/13 05:12:14;;;;;;;5.65;2.55;;;10.60;99.90;;;;;;4967862;28;20683;-87
2021/05/13 05:14:41;;;;;;;6.88;3.20;;;10.60;99.90;;;;;;4995400;28;20034;-88
2021/05/13 05:17:07;;;;;;;7.57;3.10;;;10.80;99.90;;;;;;4978350;28;20054;-86
2021/05/13 05:19:33;;;;;;;5.43;2.80;;;10.90;99.90;;;;;;4977799;28;20026;-87
2021/05/13 05:21:58;;;;;;;7.00;2.92;;;10.90;99.90;;;;;;4976752;28;20697;-87
2021/05/13 05:24:24;;;;;;;7.20;3.08;;;10.80;99.90;;;;;;4995183;28;20666;-87
2021/05/13 05:26:50;;;;;;;4.57;2.50;;;10.70;99.90;;;;;;4995129;28;20126;-88
2021/05/13 05:29:16;;;;;;;5.72;2.90;;;10.60;99.90;;;;;;4976871;28;20460;-88
2021/05/13 05:31:41;;;;;;;4.88;2.67;;;10.60;99.90;;;;;;4978157;28;20034;-87
2021/05/13 05:34:07;;;;;;;6.53;3.28;;;10.60;99.90;;;;;;4993299;28;20033;-88
2021/05/13 05:36:32;;;;;;;5.78;3.42;;;10.70;99.90;;;;;;4993370;28;20022;-88
2021/05/13 05:38:59;;;;;;;6.80;3.13;;;10.70;99.90;;;;;;4994220;28;20129;-88
2021/05/13 05:41:25;;;;;;;6.75;3.42;;;10.70;99.90;;;;;;4993334;28;20037;-88
2021/05/13 05:43:51;;;;;;;6.43;3.33;;;10.70;99.90;;;;;;4993843;28;20022;-87
2021/05/13 05:46:17;;;;;;;6.75;3.15;;;10.80;99.90;;;;;;4993101;28;20550;-87
2021/05/13 05:48:43;;;;;;;6.53;3.47;;;10.90;99.90;;;;;;4975364;28;20046;-88
2021/05/13 05:51:09;;;;;;;5.90;2.95;;;11.30;99.90;;;;;;4992955;28;20031;-87
2021/05/13 05:53:34;;;;;;;6.00;3.30;;;11.30;99.90;;;;;;4992339;28;20049;-88
2021/05/13 05:56:00;;;;;;;6.53;3.20;;;11.30;99.90;;;;;;5010573;28;20076;-87
2021/05/13 05:58:26;;;;;;;5.63;3.45;;;11.30;99.90;;;;;;4992763;28;20027;-87
2021/05/13 06:00:51;;;;;;;6.20;3.08;;;11.30;99.90;;;;;;4992571;28;20321;-88
2021/05/13 06:03:17;;;;;;;5.10;3.10;;;11.50;99.90;;;;;;4992568;28;20054;-87
2021/05/13 06:05:42;;;;;;;6.90;3.45;;;11.60;99.90;;;;;;4990238;28;20073;-87
2021/05/13 06:08:08;;;;;;;6.55;3.10;;;11.70;99.90;;;;;;4970517;28;20085;-87
2021/05/13 06:10:34;;;;;;;6.22;3.28;;;11.80;99.90;;;;;;4973167;28;20031;-87
2021/05/13 06:12:59;;;;;;;4.65;3.25;;;12.00;99.90;;;;;;4977516;28;20053;-88
2021/05/13 06:15:25;;;;;;;7.43;3.30;;;12.20;99.90;;;;;;5000177;28;20109;-87
2021/05/13 06:17:52;;;;;;;5.45;2.67;;;11.90;99.90;;;;;;4995278;28;20077;-88
2021/05/13 06:20:24;;;;;;;6.30;2.90;;;12.00;99.90;;;;;;4993629;28;20462;-88
2021/05/13 06:22:50;;;;;;;5.80;2.60;;;12.20;99.90;;;;;;4991979;28;20018;-88
2021/05/13 06:25:16;;;;;;;6.43;3.15;;;12.40;99.90;;;;;;4992632;28;20163;-87
2021/05/13 06:27:43;;;;;;;8.18;3.00;;;12.60;99.90;;;;;;4982456;28;20527;-87
2021/05/13 06:30:10;;;;;;;5.82;3.05;;;12.70;99.90;;;;;;4992481;28;20495;-88
2021/05/13 06:32:35;;;;;;;5.45;2.92;;;12.80;99.90;;;;;;4993739;28;20430;-88
2021/05/13 06:35:01;;;;;;;7.07;2.78;;;12.50;99.90;;;;;;4993781;28;20101;-86
2021/05/13 06:37:27;;;;;;;5.70;2.90;;;12.70;99.90;;;;;;4993909;28;20042;-87
2021/05/13 06:39:53;;;;;;;5.05;2.35;;;12.80;99.90;;;;;;4976928;28;20105;-87
2021/05/13 06:42:18;;;;;;;5.97;3.00;;;13.00;99.90;;;;;;4971805;28;20119;-87
2021/05/13 06:44:44;;;;;;;5.82;2.72;;;13.00;99.90;;;;;;4993283;28;20026;-88
2021/05/13 06:47:12;;;;;;;4.05;2.53;;;13.20;99.90;;;;;;4976514;28;20036;-88
2021/05/13 06:49:39;;;;;;;4.80;2.58;;;13.40;99.90;;;;;;4992247;28;20380;-88
2021/05/13 06:52:05;;;;;;;6.60;2.90;;;13.40;99.90;;;;;;4991329;28;20740;-87
2021/05/13 06:54:31;;;;;;;6.78;2.28;;;13.60;99.90;;;;;;4988528;28;20029;-88
2021/05/13 06:56:58;;;;;;;4.03;2.03;;;13.70;99.90;;;;;;4992217;28;20030;-88
2021/05/13 06:59:25;;;;;;;5.32;2.50;;;13.60;99.90;;;;;;4993930;28;20081;-88
2021/05/13 07:01:54;;;;;;;4.85;2.60;;;13.80;99.90;;;;;;4971080;28;20122;-88
2021/05/13 07:04:20;;;;;;;4.95;2.40;;;13.70;99.90;;;;;;4973453;28;20053;-87
2021/05/13 07:06:46;;;;;;;6.90;2.42;;;13.90;99.90;;;;;;4966093;28;20080;-88
2021/05/13 07:09:12;;;;;;;5.10;2.13;;;14.10;99.90;;;;;;4990435;28;20018;-88
2021/05/13 07:11:37;;;;;;;5.40;2.33;;;14.10;99.90;;;;;;4990888;28;20064;-87
2021/05/13 07:14:03;;;;;;;5.82;2.20;;;14.30;99.90;;;;;;4982281;28;20027;-87
2021/05/13 07:16:32;;;;;;;6.00;2.53;;;14.10;99.90;;;;;;4992149;28;20022;-90
2021/05/13 07:18:58;;;;;;;5.15;2.17;;;13.90;99.90;;;;;;4972918;28;20042;-87
2021/05/13 07:21:24;;;;;;;4.93;2.00;;;13.70;99.90;;;;;;4991417;28;20467;-87
2021/05/13 07:23:50;;;;;;;4.32;2.10;;;13.60;99.90;;;;;;4992112;28;20042;-86
2021/05/13 07:26:15;;;;;;;5.53;2.17;;;13.80;99.90;;;;;;4990936;28;20060;-87
2021/05/13 07:28:41;;;;;;;6.03;2.28;;;14.10;99.90;;;;;;4991784;28;20022;-88
2021/05/13 07:31:08;;;;;;;5.32;2.25;;;14.00;99.90;;;;;;5000102;28;20089;-87
2021/05/13 07:33:34;;;;;;;13.40;5.00;;;14.20;99.90;;;;;;4991349;28;20030;-88
2021/05/13 07:36:00;;;;;;;8.73;4.03;;;14.30;99.90;;;;;;4975274;28;20034;-89
2021/05/13 07:38:26;;;;;;;3.75;1.83;;;14.10;99.90;;;;;;4991860;28;20533;-89
2021/05/13 07:40:52;;;;;;;2.85;1.45;;;14.20;99.90;;;;;;4991616;28;20050;-89
2021/05/13 07:43:19;;;;;;;3.20;1.38;;;14.50;99.90;;;;;;4991063;28;20104;-89
2021/05/13 07:45:46;;;;;;;4.20;1.75;;;14.60;99.90;;;;;;4991644;28;20541;-89
2021/05/13 07:48:12;;;;;;;4.03;1.80;;;14.80;99.90;;;;;;4975465;28;20034;-89
2021/05/13 07:50:38;;;;;;;6.40;1.70;;;14.90;99.90;;;;;;4992625;28;20042;-90
2021/05/13 07:53:06;;;;;;;3.67;1.70;;;14.90;99.90;;;;;;4974828;28;20072;-89
2021/05/13 07:55:32;;;;;;;3.33;1.60;;;15.20;99.90;;;;;;4991929;28;20030;-87
2021/05/13 07:57:57;;;;;;;4.25;1.42;;;15.30;99.90;;;;;;4991184;28;20426;-88
2021/05/13 08:00:23;;;;;;;3.13;1.40;;;15.70;99.90;;;;;;4990926;28;20037;-89
2021/05/13 08:02:49;;;;;;;3.28;1.13;;;15.90;99.90;;;;;;4990495;28;20041;-88
2021/05/13 08:05:15;;;;;;;2.78;1.00;;;15.80;99.90;;;;;;4992325;28;20022;-88
2021/05/13 08:07:41;;;;;;;4.50;1.40;;;16.10;99.90;;;;;;4974342;28;20506;-88
2021/05/13 08:10:08;;;;;;;4.65;1.23;;;16.20;99.90;;;;;;4990219;28;20035;-87
2021/05/13 08:12:34;;;;;;;3.50;1.20;;;16.50;99.90;;;;;;4991786;28;20036;-88
2021/05/13 08:14:59;;;;;;;2.13;1.00;;;16.50;99.90;;;;;;4986812;28;20113;-88
2021/05/13 08:17:25;;;;;;;4.57;1.25;;;16.40;99.90;;;;;;4991591;28;20037;-88
2021/05/13 08:19:51;;;;;;;2.20;1.08;;;16.40;99.90;;;;;;4991533;28;20034;-87
2021/05/13 08:22:16;;;;;;;3.45;1.20;;;16.50;99.90;;;;;;4990105;28;20026;-88
2021/05/13 08:24:42;;;;;;;3.03;1.20;;;16.40;99.90;;;;;;4987455;28;20104;-87
2021/05/13 08:27:08;;;;;;;4.75;1.40;;;16.20;99.90;;;;;;4992409;28;20022;-88
2021/05/13 08:29:33;;;;;;;3.00;0.70;;;16.40;99.90;;;;;;4990652;28;20503;-88
2021/05/13 08:31:59;;;;;;;2.40;0.70;;;16.90;99.90;;;;;;4991601;28;20057;-88
2021/05/13 08:34:25;;;;;;;3.03;0.60;;;17.20;99.40;;;;;;4971147;28;20484;-88
2021/05/13 08:36:51;;;;;;;2.72;0.60;;;17.40;98.30;;;;;;4971152;28;20121;-88
2021/05/13 08:39:17;;;;;;;2.40;0.60;;;17.40;95.30;;;;;;4985059;28;20173;-88
2021/05/13 08:41:43;;;;;;;1.98;0.60;;;17.30;93.00;;;;;;4988108;28;20057;-88
2021/05/13 08:44:09;;;;;;;1.40;0.50;;;16.60;93.40;;;;;;4991498;28;20021;-88
2021/05/13 08:46:39;;;;;;;1.70;0.50;;;16.10;94.90;;;;;;4990876;28;20027;-88
2021/05/13 08:49:05;;;;;;;2.10;0.63;;;15.80;96.20;;;;;;4989037;28;20030;-88
2021/05/13 08:51:37;;;;;;;0.95;0.40;;;15.70;96.50;;;;;;4970012;28;20022;-88
2021/05/13 08:54:03;;;;;;;;;;;15.70;96.50;;;;;;4991636;28;20045;-88
2021/05/13 08:56:30;;;;;;;1.83;0.90;;;15.80;98.90;;;;;;4992466;28;20291;-88
2021/05/13 08:59:03;;;;;;;1.85;0.70;;;15.70;99.90;;;;;;4991818;28;20023;-88
2021/05/13 09:01:29;;;;;;;2.08;1.00;;;15.70;99.90;;;;;;4990857;28;20019;-88
2021/05/13 09:03:55;;;;;;;3.55;0.82;;;15.60;99.90;;;;;;4986521;28;20022;-88
2021/05/13 09:06:42;;;;;;;2.97;1.00;;;15.60;99.90;;;;;;5001436;28;20206;-88
2021/05/13 09:09:12;;;;;;;1.92;0.90;;;15.60;99.90;;;;;;4955983;28;20074;-88
2021/05/13 09:11:56;;;;;;;2.63;0.70;;;15.60;99.90;;;;;;4976288;28;20359;-88
2021/05/13 09:14:23;;;;;;;2.95;0.75;;;15.50;99.90;;;;;;4959191;28;20587;-87
2021/05/13 09:16:49;;;;;;;1.83;0.70;;;15.50;99.90;;;;;;4990767;28;20113;-88
2021/05/13 09:19:19;;;;;;;3.38;0.82;;;15.60;99.90;;;;;;4984035;28;20029;-87
2021/05/13 09:22:00;;;;;;;2.65;0.60;;;15.80;99.90;;;;;;5007434;28;20030;-87
2021/05/13 09:24:55;;;;;;;3.03;0.85;;;16.30;99.90;;;;;;4990483;28;20495;-87
2021/05/13 09:27:24;;;;;;;1.55;0.68;;;16.80;99.90;;;;;;5009164;28;20086;-88
2021/05/13 09:30:17;;;;;;;2.80;0.90;;;17.10;99.90;;;;;;5000715;28;20034;-88
2021/05/13 09:32:45;;;;;;;2.33;0.80;;;17.20;99.90;;;;;;4989251;28;20045;-88
2021/05/13 09:35:22;;;;;;;2.67;1.05;;;17.30;99.90;;;;;;4978322;28;20080;-88
2021/05/13 09:37:50;;;;;;;3.42;1.00;;;17.20;99.90;;;;;;4977667;28;20053;-88
2021/05/13 09:40:22;;;;;;;3.17;0.95;;;16.90;99.90;;;;;;4967272;28;20428;-88
2021/05/13 09:42:48;;;;;;;2.83;1.00;;;16.80;99.90;;;;;;4957738;28;20027;-87
2021/05/13 09:45:14;;;;;;;2.85;1.05;;;16.90;99.90;;;;;;4958378;28;20429;-87
2021/05/13 09:47:40;;;;;;;3.13;0.75;;;16.80;99.90;;;;;;4967205;28;20074;-88
2021/05/13 09:50:14;;;;;;;3.38;1.00;;;16.60;99.90;;;;;;4994688;28;20022;-88
2021/05/13 09:52:46;;;;;;;3.95;0.98;;;16.70;99.90;;;;;;4995247;28;20364;-88
2021/05/13 09:55:12;;;;;;;2.90;1.00;;;16.70;99.90;;;;;;4994933;28;20032;-88
2021/05/13 09:57:38;;;;;;;2.53;1.00;;;16.90;99.90;;;;;;4994488;28;20030;-88
2021/05/13 10:00:06;;;;;;;2.85;1.08;;;16.90;99.70;;;;;;4994491;28;20030;-88
2021/05/13 10:02:32;;;;;;;3.00;1.05;;;17.00;99.90;;;;;;4990308;28;20488;-88
2021/05/13 10:04:58;;;;;;;2.70;0.80;;;16.90;99.50;;;;;;4957776;28;20034;-88
2021/05/13 10:07:24;;;;;;;2.03;0.80;;;16.80;99.10;;;;;;4974066;28;20489;-88
2021/05/13 10:09:50;;;;;;;2.75;0.82;;;16.90;99.80;;;;;;4975237;28;20110;-88
2021/05/13 10:12:19;;;;;;;2.50;0.93;;;17.00;99.90;;;;;;4974852;28;20041;-88
2021/05/13 10:14:48;;;;;;;2.15;0.88;;;17.00;98.40;;;;;;4973479;28;20081;-88
2021/05/13 10:17:14;;;;;;;3.22;1.10;;;17.00;97.70;;;;;;4994239;28;20035;-88
2021/05/13 10:19:54;;;;;;;2.60;0.80;;;16.80;97.70;;;;;;4992538;28;20026;-88
2021/05/13 10:22:20;;;;;;;2.28;0.70;;;16.60;97.20;;;;;;4992295;28;20053;-87
2021/05/13 10:24:47;;;;;;;3.13;1.08;;;16.50;98.90;;;;;;4992330;28;20529;-88
2021/05/13 10:27:20;;;;;;;2.67;0.93;;;16.40;98.10;;;;;;4993862;28;20080;-88
2021/05/13 10:29:47;;;;;;;2.20;0.80;;;16.30;97.30;;;;;;4994172;28;20022;-88
2021/05/13 10:32:17;;;;;;;4.28;0.90;;;16.20;99.00;;;;;;4993509;28;20062;-88
2021/05/13 10:34:49;;;;;;;2.30;0.80;;;16.20;99.60;;;;;;4992213;28;20030;-88
2021/05/13 10:37:18;;;;;;;;;;;16.20;98.90;;;;;;4994081;28;20026;-88
2021/05/13 10:43:07;;;;;;;1.42;0.55;;;16.00;97.40;;;;;;4955044;28;20030;-87
2021/05/13 10:45:38;;;;;;;3.10;0.85;;;16.20;97.70;;;;;;4992167;28;20040;-88
2021/05/13 10:48:10;;;;;;;3.05;0.60;;;16.10;99.00;;;;;;4992625;28;20038;-87
2021/05/13 10:50:44;;;;;;;;;;;16.00;98.00;;;;;;4993497;28;20055;-87
2021/05/13 10:53:35;;;;;;;3.22;0.80;;;16.10;98.70;;;;;;4991559;28;19961;-88
2021/05/13 10:56:14;;;;;;;1.60;0.60;;;16.10;97.70;;;;;;4993387;28;20027;-87
2021/05/13 10:59:03;;;;;;;2.28;0.90;;;16.00;97.10;;;;;;4991703;28;20285;-88
2021/05/13 11:01:29;;;;;;;1.30;0.57;;;16.10;99.70;;;;;;4959009;28;20073;-87
2021/05/13 11:04:29;;;;;;;2.65;0.47;;;16.10;98.30;;;;;;4966766;28;20499;-88
2021/05/13 11:07:16;;;;;;;1.35;0.32;;;16.00;98.60;;;;;;4992105;28;20041;-87
2021/05/13 11:09:45;;;;;;;2.17;0.50;;;16.00;99.20;;;;;;4988081;28;20038;-88
2021/05/13 11:12:11;;;;;;;1.10;0.40;;;16.00;99.00;;;;;;4982847;28;20054;-88
2021/05/13 11:20:23;;;;;;;2.70;0.50;;;16.20;99.90;;;;;;4992100;28;20038;-87
2021/05/13 11:23:21;;;;;;;1.40;0.40;;;16.20;99.90;;;;;;4990827;28;20046;-88
2021/05/13 11:26:02;;;;;;;1.65;0.40;;;16.20;99.50;;;;;;4986673;28;20028;-87
2021/05/13 11:28:39;;;;;;;1.48;0.22;;;16.10;99.80;;;;;;4970462;28;20026;-88
2021/05/13 11:31:08;;;;;;;1.73;0.40;;;16.30;98.60;;;;;;4986946;28;20050;-88
2021/05/13 11:33:42;;;;;;;1.30;0.40;;;16.40;99.20;;;;;;4992959;28;20487;-88
2021/05/13 11:36:11;;;;;;;1.02;0.32;;;16.50;98.00;;;;;;4990056;28;20058;-85
2021/05/13 11:38:37;;;;;;;2.80;0.50;;;16.90;98.50;;;;;;4993916;28;20183;-87
2021/05/13 11:41:05;;;;;;;1.15;0.35;;;17.10;97.80;;;;;;4992010;28;20444;-86
2021/05/13 11:43:36;;;;;;;1.42;0.40;;;17.20;95.10;;;;;;4990874;28;20022;-90
2021/05/13 11:46:03;;;;;;;;;;;17.60;95.20;;;;;;4978714;28;20026;-88
2021/05/13 11:48:34;;;;;;;1.08;0.20;;;18.10;92.30;;;;;;4986154;28;19906;-90
2021/05/13 11:51:12;;;;;;;0.68;0.17;;;18.50;91.70;;;;;;4989648;28;20022;-88
2021/05/13 11:53:40;;;;;;;1.80;0.30;;;18.40;90.00;;;;;;4956726;28;20030;-87
2021/05/13 11:56:07;;;;;;;2.20;0.30;;;18.30;89.50;;;;;;4962863;28;20022;-87
2021/05/13 11:58:42;;;;;;;1.23;0.30;;;18.10;90.70;;;;;;4991852;28;20038;-88
2021/05/13 12:01:30;;;;;;;1.05;0.30;;;17.90;91.20;;;;;;4976517;28;20214;-88
2021/05/13 12:04:17;;;;;;;0.60;0.28;;;17.50;90.70;;;;;;4976980;28;20109;-92
2021/05/13 12:06:45;;;;;;;1.02;0.30;;;17.30;92.30;;;;;;5004472;28;20025;-90
2021/05/13 12:09:17;;;;;;;2.35;0.30;;;17.20;91.90;;;;;;4997338;28;20525;-92
2021/05/13 12:11:43;;;;;;;1.17;0.20;;;17.20;91.40;;;;;;4994018;28;20076;-88
2021/05/13 12:14:19;;;;;;;2.33;0.20;;;16.90;91.40;;;;;;4992817;28;20109;-89
2021/05/13 12:16:52;;;;;;;0.70;0.20;;;16.80;92.60;;;;;;4977103;28;20023;-90
2021/05/13 12:19:21;;;;;;;0.50;0.20;;;16.70;93.60;;;;;;4992786;28;20027;-89
2021/05/13 12:21:53;;;;;;;1.50;0.30;;;16.70;94.80;;;;;;4976262;28;20045;-88
2021/05/13 12:24:37;;;;;;;2.90;0.40;;;16.70;95.60;;;;;;4976289;28;20045;-90
2021/05/13 12:27:03;;;;;;;1.02;0.30;;;16.80;94.10;;;;;;4979929;28;20037;-88
2021/05/13 12:29:29;;;;;;;0.90;0.45;;;16.90;94.20;;;;;;4994254;28;20034;-87
2021/05/13 12:31:55;;;;;;;0.57;0.10;;;16.90;92.80;;;;;;4992690;28;20026;-88
2021/05/13 12:34:31;;;;;;;2.25;0.20;;;16.80;93.70;;;;;;4994271;28;20038;-86
2021/05/13 12:36:57;;;;;;;1.38;0.20;;;16.90;93.10;;;;;;4993706;28;20672;-87
2021/05/13 12:39:30;;;;;;;0.90;0.20;;;17.00;92.60;;;;;;4993406;28;20073;-86
2021/05/13 12:41:56;;;;;;;0.63;0.20;;;17.10;91.60;;;;;;4992725;28;20077;-87
2021/05/13 12:44:27;;;;;;;1.10;0.28;;;17.30;91.40;;;;;;4992380;28;20422;-87
2021/05/13 12:46:54;;;;;;;0.47;0.20;;;17.40;90.40;;;;;;4978217;28;20023;-88
2021/05/13 12:49:25;;;;;;;0.82;0.10;;;17.20;90.70;;;;;;4986037;28;20425;-86
2021/05/13 12:52:07;;;;;;;1.50;0.20;;;17.20;89.20;;;;;;4954598;28;20027;-86
2021/05/13 12:54:36;;;;;;;1.33;0.22;;;17.50;89.70;;;;;;4981600;28;20089;-86
2021/05/13 12:57:14;;;;;;;0.68;0.20;;;17.50;87.50;;;;;;4989546;28;20025;-87
2021/05/13 13:00:00;;;;;;;0.10;0.10;;;17.50;86.50;;;;;;4989725;28;20076;-86
2021/05/13 13:02:28;;;;;;;0.55;0.17;;;17.70;87.90;;;;;;4989908;28;20371;-86
2021/05/13 13:05:02;;;;;;;0.93;0.20;;;17.80;88.20;;;;;;4993030;28;20023;-86
2021/05/13 13:07:37;;;;;;;0.43;0.10;;;17.80;87.30;;;;;;4994537;28;20081;-86
2021/05/13 13:10:21;;;;;;;0.38;0.10;;;17.60;87.80;;;;;;4994929;28;20093;-86